createdAt,value
2023-01-12T00:01:56.942Z,100.00
2023-01-12T00:04:23.736Z,100.00
2023-01-12T00:06:50.375Z,100.00
2023-01-12T00:09:16.958Z,100.00
2023-01-12T00:11:43.660Z,100.00
2023-01-12T00:14:10.261Z,100.00
2023-01-12T00:16:38.649Z,100.00
2023-01-12T00:19:07.571Z,100.00
2023-01-12T00:21:34.189Z,100.00
2023-01-12T00:24:00.847Z,100.00
2023-01-12T00:26:27.455Z,100.00
2023-01-12T00:28:54.203Z,100.00
2023-01-12T00:31:20.917Z,100.00
2023-01-12T00:33:47.522Z,100.00
2023-01-12T00:36:17.817Z,100.00
2023-01-12T00:38:44.502Z,100.00
2023-01-12T00:41:14.272Z,100.00
2023-01-12T00:43:40.914Z,100.00
2023-01-12T00:46:08.125Z,100.00
2023-01-12T00:48:34.820Z,100.00
2023-01-12T00:51:04.081Z,100.00
2023-01-12T00:53:31.136Z,100.00
2023-01-12T00:56:02.590Z,100.00
2023-01-12T00:58:29.371Z,100.00
2023-01-12T01:01:07.562Z,100.00
2023-01-12T01:03:35.351Z,100.00
2023-01-12T01:06:06.705Z,100.00
2023-01-12T01:08:36.671Z,100.00
2023-01-12T01:11:04.427Z,100.00
2023-01-12T01:13:31.158Z,100.00
2023-01-12T01:16:02.389Z,100.00
2023-01-12T01:18:29.483Z,100.00
2023-01-12T01:20:56.150Z,100.00
2023-01-12T01:23:24.903Z,100.00
2023-01-12T01:25:51.865Z,100.00
2023-01-12T01:28:18.745Z,100.00
2023-01-12T01:30:46.517Z,100.00
2023-01-12T01:33:14.106Z,100.00
2023-01-12T01:35:41.120Z,100.00
2023-01-12T01:38:07.704Z,100.00
2023-01-12T01:40:34.328Z,100.00
2023-01-12T01:43:00.948Z,100.00
2023-01-12T01:45:27.749Z,100.00
2023-01-12T01:47:58.769Z,100.00
2023-01-12T01:50:32.546Z,100.00
2023-01-12T01:53:04.908Z,100.00
2023-01-12T01:55:53.566Z,100.00
2023-01-12T01:58:32.085Z,100.00
2023-01-12T02:00:58.890Z,100.00
2023-01-12T02:03:26.443Z,100.00
2023-01-12T02:05:55.624Z,100.00
2023-01-12T02:08:40.843Z,100.00
2023-01-12T02:11:07.840Z,100.00
2023-01-12T02:13:34.438Z,100.00
2023-01-12T02:16:20.880Z,100.00
2023-01-12T02:19:06.312Z,100.00
2023-01-12T02:21:57.564Z,100.00
2023-01-12T02:24:26.891Z,100.00
2023-01-12T02:27:27.410Z,100.00
2023-01-12T02:30:28.710Z,100.00
2023-01-12T02:33:08.597Z,100.00
2023-01-12T02:36:06.667Z,100.00
2023-01-12T02:39:08.843Z,100.00
2023-01-12T02:41:51.136Z,100.00
2023-01-12T02:44:34.925Z,100.00
2023-01-12T02:47:07.303Z,100.00
2023-01-12T02:49:41.453Z,100.00
2023-01-12T02:52:14.024Z,100.00
2023-01-12T02:54:43.488Z,100.00
2023-01-12T02:57:10.962Z,100.00
2023-01-12T02:59:40.560Z,100.00
2023-01-12T03:02:16.951Z,100.00
2023-01-12T03:04:43.802Z,100.00
2023-01-12T03:07:35.041Z,100.00
2023-01-12T03:10:32.182Z,100.00
2023-01-12T03:13:02.905Z,100.00
2023-01-12T03:15:29.652Z,100.00
2023-01-12T03:18:10.263Z,100.00
2023-01-12T03:20:45.469Z,100.00
2023-01-12T03:23:17.629Z,100.00
2023-01-12T03:25:45.152Z,100.00
2023-01-12T03:28:16.453Z,100.00
2023-01-12T03:30:54.917Z,100.00
2023-01-12T03:33:23.194Z,100.00
2023-01-12T03:36:05.010Z,100.00
2023-01-12T03:38:43.363Z,100.00
2023-01-12T03:41:18.400Z,100.00
2023-01-12T03:43:50.654Z,100.00
2023-01-12T03:46:36.724Z,100.00
2023-01-12T03:49:27.842Z,100.00
2023-01-12T03:51:57.599Z,100.00
2023-01-12T03:54:26.697Z,100.00
2023-01-12T03:56:54.542Z,100.00
2023-01-12T03:59:22.541Z,100.00
2023-01-12T04:01:49.285Z,100.00
2023-01-12T04:04:15.983Z,100.00
2023-01-12T04:06:42.588Z,100.00
2023-01-12T04:09:09.498Z,100.00
2023-01-12T04:11:36.101Z,100.00
2023-01-12T04:14:02.724Z,100.00
2023-01-12T04:16:29.518Z,100.00
2023-01-12T04:18:56.209Z,100.00
2023-01-12T04:21:22.822Z,100.00
2023-01-12T04:23:49.502Z,100.00
2023-01-12T04:26:16.099Z,100.00
2023-01-12T04:28:42.707Z,100.00
2023-01-12T04:31:09.430Z,100.00
2023-01-12T04:33:36.064Z,100.00
2023-01-12T04:36:02.657Z,100.00
2023-01-12T04:38:29.350Z,100.00
2023-01-12T04:40:55.957Z,100.00
2023-01-12T04:43:22.545Z,100.00
2023-01-12T04:45:49.192Z,100.00
2023-01-12T04:48:15.831Z,100.00
2023-01-12T04:50:42.671Z,100.00
2023-01-12T04:53:11.196Z,100.00
2023-01-12T04:55:40.466Z,100.00
2023-01-12T04:58:07.878Z,100.00
2023-01-12T05:00:35.337Z,100.00
2023-01-12T05:03:02.376Z,100.00
2023-01-12T05:05:31.402Z,100.00
2023-01-12T05:08:02.726Z,100.00
2023-01-12T05:10:29.498Z,100.00
2023-01-12T05:12:56.705Z,100.00
2023-01-12T05:15:23.662Z,100.00
2023-01-12T05:17:50.287Z,100.00
2023-01-12T05:20:17.033Z,100.00
2023-01-12T05:22:43.620Z,100.00
2023-01-12T05:25:10.566Z,100.00
2023-01-12T05:27:37.164Z,100.00
2023-01-12T05:30:04.266Z,100.00
2023-01-12T05:32:30.863Z,100.00
2023-01-12T05:34:57.505Z,100.00
2023-01-12T05:37:24.145Z,100.00
2023-01-12T05:39:50.776Z,100.00
2023-01-12T05:42:17.366Z,100.00
2023-01-12T05:44:44.089Z,100.00
2023-01-12T05:47:10.724Z,100.00
2023-01-12T05:49:37.331Z,100.00
2023-01-12T05:52:04.060Z,100.00
2023-01-12T05:54:33.829Z,100.00
2023-01-12T05:57:00.436Z,100.00
2023-01-12T05:59:27.102Z,100.00
2023-01-12T06:01:56.567Z,100.00
2023-01-12T06:04:23.544Z,100.00
2023-01-12T06:06:50.149Z,100.00
2023-01-12T06:09:16.752Z,100.00
2023-01-12T06:11:43.354Z,100.00
2023-01-12T06:14:10.404Z,100.00
2023-01-12T06:16:38.647Z,100.00
2023-01-12T06:19:05.799Z,100.00
2023-01-12T06:21:33.911Z,100.00
2023-01-12T06:24:00.944Z,100.00
2023-01-12T06:26:27.873Z,100.00
2023-01-12T06:28:54.516Z,100.00
2023-01-12T06:31:21.121Z,100.00
2023-01-12T06:33:47.796Z,100.00
2023-01-12T06:36:14.578Z,100.00
2023-01-12T06:38:41.328Z,100.00
2023-01-12T06:41:10.633Z,100.00
2023-01-12T06:43:38.982Z,100.00
2023-01-12T06:46:05.650Z,100.00
2023-01-12T06:48:39.067Z,100.00
2023-01-12T06:51:06.333Z,100.00
2023-01-12T06:53:33.011Z,100.00
2023-01-12T06:55:59.625Z,100.00
2023-01-12T06:58:26.310Z,100.00
2023-01-12T07:00:52.929Z,100.00
2023-01-12T07:03:20.432Z,100.00
2023-01-12T07:05:47.063Z,100.00
2023-01-12T07:08:13.793Z,100.00
2023-01-12T07:10:40.456Z,100.00
2023-01-12T07:13:07.032Z,100.00
2023-01-12T07:15:33.737Z,100.00
2023-01-12T07:18:00.379Z,100.00
2023-01-12T07:20:27.727Z,100.00
2023-01-12T07:22:55.386Z,100.00
2023-01-12T07:25:22.181Z,100.00
2023-01-12T07:27:53.305Z,100.00
2023-01-12T07:30:20.655Z,100.00
2023-01-12T07:32:48.114Z,100.00
2023-01-12T07:35:15.737Z,100.00
2023-01-12T07:37:53.367Z,100.00
2023-01-12T07:40:20.592Z,100.00
2023-01-12T07:42:47.473Z,100.00
2023-01-12T07:45:14.127Z,100.00
2023-01-12T07:47:40.726Z,100.00
2023-01-12T07:50:07.796Z,100.00
2023-01-12T07:52:34.500Z,100.00
2023-01-12T07:55:01.120Z,100.00
2023-01-12T07:57:27.864Z,100.00
2023-01-12T07:59:54.451Z,100.00
2023-01-12T08:02:21.210Z,100.00
2023-01-12T08:04:47.867Z,100.00
2023-01-12T08:07:14.546Z,100.00
2023-01-12T08:09:41.188Z,100.00
2023-01-12T08:12:07.822Z,100.00
2023-01-12T08:14:36.622Z,100.00
2023-01-12T08:17:06.956Z,100.00
2023-01-12T08:19:39.581Z,100.00
2023-01-12T08:22:14.550Z,100.00
2023-01-12T08:24:46.051Z,100.00
2023-01-12T08:27:12.763Z,100.00
2023-01-12T08:29:45.100Z,100.00
2023-01-12T08:32:13.526Z,100.00
2023-01-12T08:34:43.668Z,100.00
2023-01-12T08:37:13.412Z,100.00
2023-01-12T08:39:40.258Z,100.00
2023-01-12T08:42:07.173Z,100.00
2023-01-12T08:44:33.799Z,100.00
2023-01-12T08:47:00.826Z,100.00
2023-01-12T08:49:29.466Z,100.00
2023-01-12T08:51:56.426Z,100.00
2023-01-12T08:54:23.430Z,100.00
2023-01-12T08:56:50.315Z,100.00
2023-01-12T08:59:16.946Z,100.00
2023-01-12T09:01:43.681Z,100.00
2023-01-12T09:04:10.566Z,100.00
2023-01-12T09:06:40.039Z,100.00
2023-01-12T09:09:09.923Z,100.00
2023-01-12T09:11:38.632Z,100.00
2023-01-12T09:14:05.685Z,100.00
2023-01-12T09:16:33.712Z,100.00
2023-01-12T09:19:00.973Z,100.00
2023-01-12T09:21:29.127Z,100.00
2023-01-12T09:23:56.362Z,100.00
2023-01-12T09:26:26.716Z,100.00
2023-01-12T09:28:53.346Z,100.00
2023-01-12T09:31:21.951Z,100.00
2023-01-12T09:33:49.280Z,100.00
2023-01-12T09:36:18.437Z,100.00
2023-01-12T09:38:46.794Z,100.00
2023-01-12T09:41:37.972Z,100.00
2023-01-12T09:44:05.535Z,100.00
2023-01-12T09:46:38.319Z,100.00
2023-01-12T09:49:06.687Z,100.00
2023-01-12T09:51:49.508Z,100.00
2023-01-12T09:54:19.358Z,100.00
2023-01-12T09:57:10.873Z,100.00
2023-01-12T09:59:52.196Z,100.00
2023-01-12T10:02:18.817Z,100.00
2023-01-12T10:04:49.134Z,100.00
2023-01-12T10:07:16.983Z,100.00
2023-01-12T10:09:43.797Z,100.00
2023-01-12T10:12:26.971Z,100.00
2023-01-12T10:15:04.001Z,100.00
2023-01-12T10:17:51.305Z,100.00
2023-01-12T10:20:29.670Z,100.00
2023-01-12T10:23:08.489Z,100.00
2023-01-12T10:25:37.911Z,100.00
2023-01-12T10:28:07.258Z,100.00
2023-01-12T10:30:39.061Z,100.00
2023-01-12T10:33:21.800Z,100.00
2023-01-12T10:35:48.410Z,100.00
2023-01-12T10:38:25.672Z,100.00
2023-01-12T10:41:10.318Z,100.00
2023-01-12T10:43:38.501Z,100.00
2023-01-12T10:46:17.726Z,100.00
2023-01-12T10:48:48.256Z,100.00
2023-01-12T10:51:33.680Z,100.00
2023-01-12T10:54:02.835Z,100.00
2023-01-12T10:56:38.987Z,100.00
2023-01-12T10:59:26.748Z,100.00
2023-01-12T11:02:13.299Z,100.00
2023-01-12T11:04:51.317Z,100.00
2023-01-12T11:07:28.817Z,100.00
2023-01-12T11:09:57.780Z,100.00
2023-01-12T11:12:38.600Z,100.00
2023-01-12T11:15:11.168Z,100.00
2023-01-12T11:18:16.286Z,100.00
2023-01-12T11:20:57.467Z,100.00
2023-01-12T11:23:33.914Z,100.00
2023-01-12T11:26:05.407Z,100.00
2023-01-12T11:28:43.631Z,100.00
2023-01-12T11:31:19.850Z,100.00
2023-01-12T11:34:03.295Z,100.00
2023-01-12T11:37:03.638Z,100.00
2023-01-12T11:39:31.640Z,100.00
2023-01-12T11:42:00.719Z,100.00
2023-01-12T11:44:43.482Z,100.00
2023-01-12T11:47:21.610Z,100.00
2023-01-12T11:49:55.406Z,100.00
2023-01-12T11:52:25.442Z,100.00
2023-01-12T11:54:52.351Z,100.00
2023-01-12T11:57:41.917Z,100.00
2023-01-12T12:00:47.088Z,100.00
2023-01-12T12:03:16.515Z,100.00
2023-01-12T12:06:02.059Z,100.00
2023-01-12T12:08:41.961Z,100.00
2023-01-12T12:11:22.572Z,100.00
2023-01-12T12:14:00.106Z,100.00
2023-01-12T12:16:56.191Z,100.00
2023-01-12T12:19:28.850Z,100.00
2023-01-12T12:22:08.287Z,100.00
2023-01-12T12:24:56.560Z,100.00
2023-01-12T12:27:39.402Z,100.00
2023-01-12T12:30:23.488Z,100.00
2023-01-12T12:32:59.800Z,100.00
2023-01-12T12:36:00.290Z,100.00
2023-01-12T12:38:47.120Z,100.00
2023-01-12T12:41:28.216Z,100.00
2023-01-12T12:44:27.076Z,100.00
2023-01-12T12:47:06.822Z,100.00
2023-01-12T12:49:36.041Z,99.21
2023-01-12T12:52:03.885Z,100.00
2023-01-12T12:54:32.269Z,100.00
2023-01-12T12:56:59.055Z,100.00
2023-01-12T12:59:55.151Z,99.92
2023-01-12T13:02:35.041Z,95.85
2023-01-12T13:05:05.576Z,97.56
2023-01-12T13:07:37.578Z,97.85
2023-01-12T13:10:31.148Z,97.02
2023-01-12T13:13:25.453Z,98.55
2023-01-12T13:16:14.738Z,92.98
2023-01-12T13:19:03.402Z,95.14
2023-01-12T13:21:56.283Z,98.30
2023-01-12T13:24:31.698Z,97.58
2023-01-12T13:26:58.524Z,97.83
2023-01-12T13:29:28.166Z,97.79
2023-01-12T13:31:58.341Z,97.45
2023-01-12T13:34:36.847Z,93.79
2023-01-12T13:37:27.974Z,96.18
2023-01-12T13:40:03.725Z,97.11
2023-01-12T13:42:30.912Z,96.23
2023-01-12T13:44:57.868Z,94.64
2023-01-12T13:47:26.842Z,95.91
2023-01-12T13:50:00.973Z,96.17
2023-01-12T13:52:35.207Z,94.92
2023-01-12T13:55:04.799Z,96.79
2023-01-12T13:57:31.982Z,95.87
2023-01-12T14:00:19.469Z,93.60
2023-01-12T14:02:46.529Z,95.46
2023-01-12T14:05:55.531Z,96.11
2023-01-12T14:08:34.413Z,96.36
2023-01-12T14:11:25.380Z,93.87
2023-01-12T14:14:07.863Z,94.33
2023-01-12T14:16:38.801Z,95.74
2023-01-12T14:19:27.766Z,95.05
2023-01-12T14:21:59.207Z,95.24
2023-01-12T14:24:25.960Z,95.93
2023-01-12T14:26:52.619Z,96.14
2023-01-12T14:29:19.391Z,94.82
2023-01-12T14:31:51.922Z,96.71
2023-01-12T14:34:31.486Z,97.41
2023-01-12T14:36:59.572Z,97.92
2023-01-12T14:39:30.022Z,99.33
2023-01-12T14:41:57.640Z,100.00
2023-01-12T14:44:26.529Z,99.04
2023-01-12T14:46:54.181Z,99.58
2023-01-12T14:49:29.745Z,99.06
2023-01-12T14:51:57.413Z,99.19
2023-01-12T14:54:32.609Z,98.60
2023-01-12T14:57:23.959Z,98.00
2023-01-12T14:59:51.084Z,99.55
2023-01-12T15:02:37.716Z,99.50
2023-01-12T15:05:18.831Z,100.00
2023-01-12T15:07:57.296Z,100.00
2023-01-12T15:10:28.700Z,100.00
2023-01-12T15:12:58.238Z,100.00
2023-01-12T15:15:29.813Z,99.99
2023-01-12T15:17:57.907Z,100.00
2023-01-12T15:20:26.438Z,100.00
2023-01-12T15:22:53.113Z,100.00
2023-01-12T15:25:19.716Z,100.00
2023-01-12T15:27:46.321Z,100.00
2023-01-12T15:30:13.257Z,100.00
2023-01-12T15:32:47.177Z,99.98
2023-01-12T15:35:26.551Z,100.00
2023-01-12T15:37:57.800Z,100.00
2023-01-12T15:40:26.291Z,100.00
2023-01-12T15:42:53.624Z,99.95
2023-01-12T15:45:31.576Z,100.00
2023-01-12T15:47:58.367Z,99.76
2023-01-12T15:50:25.037Z,98.75
2023-01-12T15:52:51.679Z,98.60
2023-01-12T15:55:21.074Z,100.00
2023-01-12T15:57:48.119Z,100.00
2023-01-12T16:00:19.914Z,100.00
2023-01-12T16:02:46.780Z,100.00
2023-01-12T16:05:13.648Z,100.00
2023-01-12T16:07:40.527Z,100.00
2023-01-12T16:10:07.997Z,100.00
2023-01-12T16:12:34.675Z,99.84
2023-01-12T16:15:01.344Z,99.84
2023-01-12T16:17:27.944Z,100.00
2023-01-12T16:19:56.003Z,99.81
2023-01-12T16:22:24.667Z,100.00
2023-01-12T16:24:52.869Z,100.00
2023-01-12T16:27:21.777Z,100.00
2023-01-12T16:29:48.621Z,100.00
2023-01-12T16:32:15.625Z,100.00
2023-01-12T16:34:42.309Z,100.00
2023-01-12T16:37:13.671Z,100.00
2023-01-12T16:39:41.191Z,100.00
2023-01-12T16:42:08.511Z,100.00
2023-01-12T16:44:38.014Z,100.00
2023-01-12T16:47:12.788Z,100.00
2023-01-12T16:49:39.853Z,100.00
2023-01-12T16:52:07.991Z,100.00
2023-01-12T16:54:34.734Z,100.00
2023-01-12T16:57:01.323Z,100.00
2023-01-12T16:59:27.957Z,100.00
2023-01-12T17:01:54.710Z,100.00
2023-01-12T17:04:21.554Z,100.00
2023-01-12T17:06:48.328Z,100.00
2023-01-12T17:09:15.887Z,100.00
2023-01-12T17:11:42.859Z,100.00
2023-01-12T17:14:11.291Z,100.00
2023-01-12T17:16:38.868Z,100.00
2023-01-12T17:19:05.575Z,100.00
2023-01-12T17:21:32.496Z,100.00
2023-01-12T17:23:59.163Z,100.00
2023-01-12T17:26:25.765Z,100.00
2023-01-12T17:28:55.408Z,100.00
2023-01-12T17:31:22.616Z,100.00
2023-01-12T17:33:49.589Z,100.00
2023-01-12T17:36:17.638Z,100.00
2023-01-12T17:38:44.292Z,100.00
2023-01-12T17:41:15.769Z,100.00
2023-01-12T17:43:42.383Z,100.00
2023-01-12T17:46:09.021Z,100.00
2023-01-12T17:48:35.614Z,100.00
2023-01-12T17:51:05.325Z,100.00
2023-01-12T17:53:31.976Z,100.00
2023-01-12T17:56:02.531Z,100.00
2023-01-12T17:58:29.133Z,100.00
2023-01-12T18:00:55.965Z,100.00
2023-01-12T18:03:22.664Z,100.00
2023-01-12T18:05:57.773Z,100.00
2023-01-12T18:08:29.743Z,100.00
2023-01-12T18:10:56.372Z,100.00
2023-01-12T18:13:25.327Z,100.00
2023-01-12T18:15:54.900Z,100.00
2023-01-12T18:18:21.792Z,100.00
2023-01-12T18:20:48.479Z,100.00
2023-01-12T18:23:15.073Z,100.00
2023-01-12T18:25:41.907Z,100.00
2023-01-12T18:28:08.520Z,100.00
2023-01-12T18:30:35.115Z,100.00
2023-01-12T18:33:01.967Z,100.00
2023-01-12T18:35:28.541Z,100.00
2023-01-12T18:37:55.212Z,100.00
2023-01-12T18:40:22.298Z,100.00
2023-01-12T18:42:48.897Z,100.00
2023-01-12T18:45:19.683Z,100.00
2023-01-12T18:47:46.506Z,100.00
2023-01-12T18:50:13.112Z,100.00
2023-01-12T18:52:39.810Z,100.00
2023-01-12T18:55:06.863Z,100.00
2023-01-12T18:57:34.637Z,100.00
2023-01-12T19:00:03.545Z,100.00
2023-01-12T19:02:30.361Z,100.00
2023-01-12T19:04:57.029Z,100.00
2023-01-12T19:07:25.746Z,100.00
2023-01-12T19:09:52.332Z,100.00
2023-01-12T19:12:18.949Z,100.00
2023-01-12T19:14:45.666Z,100.00
2023-01-12T19:17:12.285Z,100.00
2023-01-12T19:19:38.877Z,100.00
2023-01-12T19:22:06.695Z,100.00
2023-01-12T19:24:33.320Z,100.00
2023-01-12T19:26:59.953Z,100.00
2023-01-12T19:29:26.576Z,100.00
2023-01-12T19:31:53.178Z,100.00
2023-01-12T19:34:19.754Z,100.00
2023-01-12T19:36:46.351Z,100.00
2023-01-12T19:39:12.964Z,100.00
2023-01-12T19:41:39.567Z,100.00
2023-01-12T19:44:06.388Z,100.00
2023-01-12T19:46:33.355Z,100.00
2023-01-12T19:49:00.146Z,100.00
2023-01-12T19:51:26.749Z,100.00
2023-01-12T19:53:53.376Z,100.00
2023-01-12T19:56:20.008Z,100.00
2023-01-12T19:58:46.621Z,100.00
2023-01-12T20:01:23.238Z,100.00
2023-01-12T20:03:50.836Z,100.00
2023-01-12T20:06:17.872Z,100.00
2023-01-12T20:08:44.557Z,100.00
2023-01-12T20:11:11.645Z,100.00
2023-01-12T20:13:38.350Z,100.00
2023-01-12T20:16:09.287Z,100.00
2023-01-12T20:18:36.590Z,100.00
2023-01-12T20:21:08.219Z,100.00
2023-01-12T20:23:34.840Z,100.00
2023-01-12T20:26:01.632Z,100.00
2023-01-12T20:28:28.237Z,100.00
2023-01-12T20:30:54.998Z,100.00
2023-01-12T20:33:21.782Z,100.00
2023-01-12T20:35:48.431Z,100.00
2023-01-12T20:38:15.495Z,100.00
2023-01-12T20:40:45.715Z,100.00
2023-01-12T20:43:12.849Z,100.00
2023-01-12T20:45:41.594Z,100.00
2023-01-12T20:48:08.551Z,100.00
2023-01-12T20:50:35.816Z,100.00
2023-01-12T20:53:03.014Z,100.00
2023-01-12T20:55:30.888Z,100.00
2023-01-12T20:57:57.529Z,100.00
2023-01-12T21:00:24.130Z,100.00
2023-01-12T21:02:50.877Z,100.00
2023-01-12T21:05:17.483Z,100.00
2023-01-12T21:07:44.092Z,99.72
2023-01-12T21:10:11.285Z,100.00
2023-01-12T21:12:38.431Z,100.00
2023-01-12T21:15:05.555Z,100.00
2023-01-12T21:17:32.143Z,100.00
2023-01-12T21:19:58.741Z,100.00
2023-01-12T21:22:25.385Z,100.00
2023-01-12T21:24:51.970Z,100.00
2023-01-12T21:27:18.570Z,100.00
2023-01-12T21:29:45.155Z,100.00
2023-01-12T21:32:11.797Z,100.00
2023-01-12T21:34:38.450Z,100.00
2023-01-12T21:37:05.149Z,100.00
2023-01-12T21:39:31.915Z,100.00
2023-01-12T21:41:58.651Z,100.00
2023-01-12T21:44:25.355Z,100.00
2023-01-12T21:46:51.979Z,100.00
2023-01-12T21:49:18.562Z,100.00
2023-01-12T21:51:45.157Z,100.00
2023-01-12T21:54:11.776Z,100.00
2023-01-12T21:56:38.402Z,100.00
2023-01-12T21:59:05.053Z,100.00
2023-01-12T22:01:31.894Z,100.00
2023-01-12T22:03:58.718Z,100.00
2023-01-12T22:06:25.362Z,100.00
2023-01-12T22:08:51.958Z,100.00
2023-01-12T22:11:18.626Z,100.00
2023-01-12T22:13:45.391Z,100.00
2023-01-12T22:16:14.591Z,100.00
2023-01-12T22:18:45.358Z,100.00
2023-01-12T22:21:12.084Z,100.00
2023-01-12T22:23:39.147Z,100.00
2023-01-12T22:26:09.790Z,100.00
2023-01-12T22:28:38.755Z,100.00
2023-01-12T22:31:12.700Z,100.00
2023-01-12T22:33:39.671Z,100.00
2023-01-12T22:36:07.521Z,100.00
2023-01-12T22:38:34.769Z,100.00
2023-01-12T22:41:06.044Z,100.00
2023-01-12T22:43:33.063Z,100.00
2023-01-12T22:45:59.739Z,100.00
2023-01-12T22:48:27.690Z,100.00
2023-01-12T22:50:54.561Z,100.00
2023-01-12T22:53:22.828Z,100.00
2023-01-12T22:55:50.361Z,100.00
2023-01-12T22:58:17.333Z,100.00
2023-01-12T23:00:43.985Z,100.00
2023-01-12T23:03:12.447Z,100.00
2023-01-12T23:05:50.074Z,100.00
2023-01-12T23:08:16.748Z,100.00
2023-01-12T23:10:44.266Z,100.00
2023-01-12T23:13:15.457Z,100.00
2023-01-12T23:15:45.568Z,100.00
2023-01-12T23:18:14.739Z,100.00
2023-01-12T23:20:41.537Z,100.00
2023-01-12T23:23:09.204Z,100.00
2023-01-12T23:25:36.603Z,100.00
2023-01-12T23:28:04.173Z,100.00
2023-01-12T23:30:31.028Z,100.00
2023-01-12T23:33:02.423Z,100.00
2023-01-12T23:35:29.107Z,100.00
2023-01-12T23:37:55.781Z,100.00
2023-01-12T23:40:22.372Z,100.00
2023-01-12T23:42:48.984Z,100.00
2023-01-12T23:45:15.751Z,100.00
2023-01-12T23:47:42.468Z,100.00
2023-01-12T23:50:11.279Z,100.00
2023-01-12T23:52:38.610Z,100.00
2023-01-12T23:55:06.332Z,100.00
2023-01-12T23:57:33.455Z,100.00
